createdAt,value
2023-02-08T00:03:01.603Z,5.43
2023-02-08T00:05:30.209Z,4.88
2023-02-08T00:08:17.273Z,6.50
2023-02-08T00:10:46.315Z,4.75
2023-02-08T00:13:14.745Z,4.82
2023-02-08T00:15:44.286Z,5.75
2023-02-08T00:18:13.075Z,5.38
2023-02-08T00:20:42.249Z,6.72
2023-02-08T00:23:13.519Z,6.18
2023-02-08T00:25:42.997Z,6.38
2023-02-08T00:28:15.807Z,6.35
2023-02-08T00:30:44.878Z,6.88
2023-02-08T00:33:13.465Z,6.45
2023-02-08T00:35:59.534Z,6.30
2023-02-08T00:38:29.593Z,6.68
2023-02-08T00:40:58.083Z,6.60
2023-02-08T00:45:56.378Z,6.30
2023-02-08T00:48:26.313Z,6.65
2023-02-08T00:51:02.511Z,6.20
2023-02-08T00:53:32.836Z,5.50
2023-02-08T00:56:01.298Z,4.95
2023-02-08T00:58:32.846Z,5.32
2023-02-08T01:01:01.419Z,5.70
2023-02-08T01:03:34.557Z,5.85
2023-02-08T01:06:03.323Z,6.20
2023-02-08T01:08:35.705Z,7.10
2023-02-08T01:11:05.829Z,6.72
2023-02-08T01:13:34.554Z,7.22
2023-02-08T01:16:14.480Z,5.63
2023-02-08T01:19:02.456Z,6.65
2023-02-08T01:21:32.767Z,5.75
2023-02-08T01:24:20.830Z,7.25
2023-02-08T01:26:49.391Z,6.18
2023-02-08T01:29:18.384Z,5.97
2023-02-08T01:31:47.284Z,4.75
2023-02-08T01:34:15.778Z,6.60
2023-02-08T01:36:45.143Z,6.53
2023-02-08T01:39:32.525Z,5.50
2023-02-08T01:42:01.227Z,5.57
2023-02-08T01:45:07.090Z,6.07
2023-02-08T01:47:36.743Z,6.40
2023-02-08T01:50:07.759Z,5.00
2023-02-08T01:52:36.417Z,6.13
2023-02-08T01:55:10.962Z,5.93
2023-02-08T01:57:42.186Z,5.30
2023-02-08T02:00:16.709Z,7.65
2023-02-08T02:02:49.173Z,5.78
2023-02-08T02:05:19.362Z,7.93
2023-02-08T02:07:49.347Z,4.65
2023-02-08T02:10:24.162Z,6.15
2023-02-08T02:12:53.582Z,5.63
2023-02-08T02:15:22.470Z,6.90
2023-02-08T02:17:51.305Z,4.88
2023-02-08T02:20:25.356Z,5.38
2023-02-08T02:23:29.087Z,6.03
2023-02-08T02:26:28.971Z,5.00
2023-02-08T02:29:38.453Z,5.10
2023-02-08T02:32:28.297Z,8.05
2023-02-08T02:35:04.740Z,8.00
2023-02-08T02:37:49.277Z,7.32
2023-02-08T02:40:25.427Z,8.02
2023-02-08T02:43:24.729Z,7.75
2023-02-08T02:46:04.505Z,8.15
2023-02-08T02:48:42.466Z,6.80
2023-02-08T02:51:15.848Z,8.25
2023-02-08T02:54:08.588Z,7.50
2023-02-08T02:56:40.697Z,7.13
2023-02-08T02:59:14.389Z,8.60
2023-02-08T03:01:45.360Z,8.45
2023-02-08T03:04:16.650Z,7.18
2023-02-08T03:07:03.071Z,6.57
2023-02-08T03:10:10.655Z,6.97
2023-02-08T03:12:51.574Z,5.57
2023-02-08T03:15:30.035Z,6.03
2023-02-08T03:18:08.431Z,6.55
2023-02-08T03:23:16.824Z,6.43
2023-02-08T03:25:52.997Z,6.68
2023-02-08T03:28:26.474Z,5.35
2023-02-08T03:31:02.889Z,6.63
2023-02-08T03:33:38.835Z,5.90
2023-02-08T03:36:18.997Z,5.95
2023-02-08T03:38:49.562Z,6.60
2023-02-08T03:41:21.778Z,6.93
2023-02-08T03:43:58.600Z,5.45
2023-02-08T03:46:31.042Z,6.78
2023-02-08T03:49:04.331Z,5.70
2023-02-08T03:51:39.139Z,5.80
2023-02-08T03:54:12.844Z,5.32
2023-02-08T03:56:47.008Z,5.05
2023-02-08T03:59:39.683Z,6.32
2023-02-08T04:02:14.029Z,5.90
2023-02-08T04:04:46.691Z,6.13
2023-02-08T04:07:18.687Z,6.25
2023-02-08T04:09:47.585Z,5.45
2023-02-08T04:12:34.549Z,5.68
2023-02-08T04:15:03.070Z,5.80
2023-02-08T04:17:32.992Z,5.78
2023-02-08T04:20:01.703Z,5.45
2023-02-08T04:22:33.677Z,5.15
2023-02-08T04:25:02.260Z,5.75
2023-02-08T04:27:32.382Z,6.28
2023-02-08T04:30:02.358Z,6.50
2023-02-08T04:32:33.039Z,6.03
2023-02-08T04:35:01.541Z,5.63
2023-02-08T04:37:34.084Z,6.28
2023-02-08T04:40:02.591Z,7.07
2023-02-08T04:42:31.768Z,5.53
2023-02-08T04:47:28.246Z,6.90
2023-02-08T04:50:15.407Z,6.68
2023-02-08T04:52:45.251Z,6.72
2023-02-08T04:55:13.787Z,6.07
2023-02-08T05:00:11.490Z,6.70
2023-02-08T05:02:40.010Z,6.20
2023-02-08T05:05:08.859Z,6.18
2023-02-08T05:07:37.389Z,6.75
2023-02-08T05:10:07.912Z,6.68
2023-02-08T05:12:36.513Z,6.90
2023-02-08T05:20:01.453Z,6.18
2023-02-08T05:22:31.562Z,6.13
2023-02-08T05:27:48.300Z,6.95
2023-02-08T05:30:16.893Z,6.75
2023-02-08T05:35:32.164Z,6.13
2023-02-08T05:38:00.678Z,6.30
2023-02-08T05:45:29.711Z,5.88
2023-02-08T05:50:26.334Z,5.95
2023-02-08T05:55:23.241Z,6.25
2023-02-08T06:00:21.631Z,5.45
2023-02-08T06:02:50.341Z,5.63
2023-02-08T06:05:18.974Z,6.45
2023-02-08T06:07:47.741Z,7.07
2023-02-08T06:10:19.063Z,6.80
2023-02-08T06:12:47.925Z,7.55
2023-02-08T06:15:16.418Z,6.75
2023-02-08T06:20:14.581Z,5.97
2023-02-08T06:25:12.182Z,7.15
2023-02-08T06:27:42.572Z,6.70
2023-02-08T06:30:12.648Z,7.03
2023-02-08T06:32:41.303Z,7.72
2023-02-08T06:35:11.712Z,7.00
2023-02-08T06:37:40.711Z,6.65
2023-02-08T06:40:10.528Z,7.00
2023-02-08T06:42:39.501Z,6.70
2023-02-08T06:45:12.627Z,7.60
2023-02-08T06:47:42.746Z,7.50
2023-02-08T06:50:12.982Z,7.65
2023-02-08T06:52:41.528Z,7.15
2023-02-08T06:57:38.329Z,6.70
2023-02-08T07:02:54.115Z,7.00
2023-02-08T07:05:24.145Z,6.37
2023-02-08T07:07:54.031Z,7.15
2023-02-08T07:10:22.910Z,7.68
2023-02-08T07:12:51.434Z,7.60
2023-02-08T07:15:20.186Z,6.53
2023-02-08T07:17:48.641Z,6.30
2023-02-08T07:22:46.782Z,6.35
2023-02-08T07:25:32.902Z,6.85
2023-02-08T07:28:01.883Z,6.88
2023-02-08T07:30:30.503Z,6.88
2023-02-08T07:32:59.227Z,8.07
2023-02-08T07:37:57.436Z,7.32
2023-02-08T07:40:25.939Z,7.20
2023-02-08T07:42:54.433Z,8.20
2023-02-08T07:45:39.191Z,7.22
2023-02-08T07:48:07.792Z,6.35
2023-02-08T07:50:36.264Z,6.93
2023-02-08T07:55:34.623Z,6.22
2023-02-08T08:00:31.727Z,6.38
2023-02-08T08:03:00.463Z,6.28
2023-02-08T08:05:29.191Z,6.28
2023-02-08T08:07:57.624Z,5.70
2023-02-08T08:10:27.669Z,5.53
2023-02-08T08:12:56.313Z,5.97
2023-02-08T08:15:25.243Z,6.38
2023-02-08T08:17:53.725Z,5.65
2023-02-08T08:20:22.758Z,5.85
2023-02-08T08:22:51.658Z,6.40
2023-02-08T08:25:20.260Z,6.40
2023-02-08T08:30:18.977Z,6.22
2023-02-08T08:32:47.509Z,6.35
2023-02-08T08:38:03.254Z,5.50
2023-02-08T08:43:04.666Z,5.47
2023-02-08T08:45:53.076Z,5.85
2023-02-08T08:48:22.155Z,6.45
2023-02-08T08:50:50.677Z,6.13
2023-02-08T08:56:05.380Z,8.07
2023-02-08T08:58:36.650Z,6.40
2023-02-08T09:01:05.307Z,6.88
2023-02-08T09:08:30.858Z,5.63
2023-02-08T09:11:05.966Z,5.55
2023-02-08T09:13:36.762Z,6.43
2023-02-08T09:16:27.159Z,6.35
2023-02-08T09:18:55.669Z,5.93
2023-02-08T09:21:26.000Z,5.80
2023-02-08T09:23:55.135Z,6.55
2023-02-08T09:26:24.805Z,6.13
2023-02-08T09:28:55.153Z,5.82
2023-02-08T09:31:26.542Z,5.60
2023-02-08T09:33:57.190Z,5.80
2023-02-08T09:36:28.196Z,5.90
2023-02-08T09:39:16.899Z,5.72
2023-02-08T09:42:29.976Z,6.20
2023-02-08T09:45:25.211Z,5.72
2023-02-08T09:48:01.950Z,7.53
2023-02-08T09:50:35.556Z,6.32
2023-02-08T09:53:11.800Z,7.60
2023-02-08T09:55:45.218Z,6.13
2023-02-08T09:58:20.810Z,6.10
2023-02-08T10:00:57.823Z,6.30
2023-02-08T10:03:36.135Z,5.93
2023-02-08T10:06:08.192Z,6.45
2023-02-08T10:08:37.717Z,5.88
2023-02-08T10:11:44.210Z,6.28
2023-02-08T10:14:32.659Z,6.03
2023-02-08T10:17:34.981Z,5.80
2023-02-08T10:20:19.544Z,6.32
2023-02-08T10:23:05.348Z,6.20
2023-02-08T10:26:02.478Z,6.50
2023-02-08T10:28:51.311Z,6.25
2023-02-08T10:31:31.597Z,5.10
2023-02-08T10:34:06.185Z,6.13
2023-02-08T10:36:42.169Z,6.25
2023-02-08T10:39:17.836Z,5.35
2023-02-08T10:41:47.434Z,5.60
2023-02-08T10:44:28.322Z,5.35
2023-02-08T10:47:04.639Z,5.30
2023-02-08T10:49:40.114Z,5.53
2023-02-08T10:52:08.711Z,6.18
2023-02-08T10:54:37.110Z,5.57
2023-02-08T10:57:12.989Z,5.53
2023-02-08T10:59:50.732Z,4.85
2023-02-08T11:02:24.239Z,5.40
2023-02-08T11:05:02.803Z,5.35
2023-02-08T11:07:36.461Z,4.70
2023-02-08T11:10:22.196Z,4.82
2023-02-08T11:12:59.908Z,5.53
2023-02-08T11:15:32.723Z,6.55
2023-02-08T11:18:03.060Z,5.88
2023-02-08T11:20:53.973Z,5.43
2023-02-08T11:23:26.471Z,6.22
2023-02-08T11:25:56.005Z,5.32
2023-02-08T11:28:27.887Z,4.50
2023-02-08T11:30:59.684Z,6.30
2023-02-08T11:33:30.405Z,5.05
2023-02-08T11:36:06.792Z,5.53
2023-02-08T11:38:37.414Z,5.90
2023-02-08T11:41:15.840Z,6.28
2023-02-08T11:43:45.076Z,5.97
2023-02-08T11:46:13.666Z,7.20
2023-02-08T11:48:47.908Z,6.63
2023-02-08T11:51:29.357Z,6.97
2023-02-08T11:53:58.534Z,5.10
2023-02-08T11:56:30.243Z,6.18
2023-02-08T11:59:02.435Z,6.32
2023-02-08T12:01:33.718Z,5.97
2023-02-08T12:04:05.746Z,6.35
2023-02-08T12:07:01.770Z,7.65
2023-02-08T12:10:06.721Z,7.00
2023-02-08T12:12:50.446Z,7.38
2023-02-08T12:15:29.485Z,5.63
2023-02-08T12:18:21.069Z,6.20
2023-02-08T12:20:58.002Z,6.32
2023-02-08T12:23:47.767Z,7.03
2023-02-08T12:26:21.416Z,6.22
2023-02-08T12:29:05.331Z,6.75
2023-02-08T12:31:46.529Z,6.38
2023-02-08T12:34:20.753Z,6.22
2023-02-08T12:37:15.417Z,8.20
2023-02-08T12:40:10.171Z,5.18
2023-02-08T12:42:53.417Z,6.70
2023-02-08T12:45:51.909Z,7.32
2023-02-08T12:48:38.333Z,7.55
2023-02-08T12:51:19.198Z,7.68
2023-02-08T12:53:54.403Z,6.32
2023-02-08T12:56:50.934Z,6.15
2023-02-08T12:59:35.664Z,6.57
2023-02-08T13:02:14.151Z,6.38
2023-02-08T13:07:21.020Z,6.97
2023-02-08T13:09:53.939Z,7.30
2023-02-08T13:12:30.686Z,6.88
2023-02-08T13:15:30.661Z,6.78
2023-02-08T13:18:02.848Z,7.18
2023-02-08T13:20:40.121Z,6.75
2023-02-08T13:23:21.074Z,6.90
2023-02-08T13:25:54.650Z,6.90
2023-02-08T13:28:26.840Z,6.75
2023-02-08T13:31:02.941Z,7.30
2023-02-08T13:33:37.479Z,6.60
2023-02-08T13:36:07.148Z,7.22
2023-02-08T13:38:39.063Z,6.50
2023-02-08T13:41:16.324Z,7.05
2023-02-08T13:43:52.377Z,7.20
2023-02-08T13:46:23.225Z,6.47
2023-02-08T13:48:55.399Z,6.07
2023-02-08T13:52:03.634Z,6.55
2023-02-08T13:54:32.355Z,6.53
2023-02-08T13:59:36.650Z,6.18
2023-02-08T14:02:23.647Z,5.80
2023-02-08T14:05:34.742Z,6.43
2023-02-08T14:08:07.177Z,6.38
2023-02-08T14:10:42.611Z,5.78
2023-02-08T14:13:27.423Z,6.78
2023-02-08T14:16:31.600Z,6.50
2023-02-08T14:19:10.135Z,7.18
2023-02-08T14:21:45.647Z,6.85
2023-02-08T14:24:23.242Z,6.68
2023-02-08T14:27:09.249Z,6.40
2023-02-08T14:29:38.709Z,7.32
2023-02-08T14:32:08.733Z,6.70
2023-02-08T14:34:41.544Z,7.07
2023-02-08T14:37:29.343Z,6.78
2023-02-08T14:40:48.790Z,7.63
2023-02-08T14:43:32.678Z,7.70
2023-02-08T14:46:34.331Z,6.30
2023-02-08T14:49:06.444Z,6.95
2023-02-08T14:51:39.771Z,8.07
2023-02-08T14:54:35.416Z,7.40
2023-02-08T14:57:08.046Z,7.95
2023-02-08T14:59:54.578Z,7.30
2023-02-08T15:02:26.680Z,6.88
2023-02-08T15:04:58.515Z,6.55
2023-02-08T15:07:39.866Z,7.55
2023-02-08T15:10:18.874Z,6.97
2023-02-08T15:12:50.707Z,6.97
2023-02-08T15:15:26.557Z,6.50
2023-02-08T15:17:59.192Z,6.25
2023-02-08T15:21:01.801Z,7.80
2023-02-08T15:23:30.882Z,7.18
2023-02-08T15:26:19.164Z,8.25
2023-02-08T15:28:48.023Z,5.28
2023-02-08T15:31:35.580Z,7.15
2023-02-08T15:34:04.711Z,6.40
2023-02-08T15:36:36.400Z,7.03
2023-02-08T15:39:12.383Z,6.35
2023-02-08T15:41:41.230Z,6.22
2023-02-08T15:44:19.008Z,6.15
2023-02-08T15:46:48.877Z,6.20
2023-02-08T15:49:19.008Z,5.55
2023-02-08T15:51:51.063Z,5.28
2023-02-08T15:54:23.661Z,5.88
2023-02-08T15:56:55.808Z,6.35
2023-02-08T15:59:35.863Z,6.80
2023-02-08T16:02:13.574Z,6.88
2023-02-08T16:04:44.716Z,5.97
2023-02-08T16:07:24.537Z,5.85
2023-02-08T16:09:53.439Z,5.78
2023-02-08T16:12:27.079Z,5.70
2023-02-08T16:14:58.389Z,6.25
2023-02-08T16:17:37.763Z,5.55
2023-02-08T16:20:30.746Z,6.05
2023-02-08T16:23:03.727Z,6.35
2023-02-08T16:25:51.510Z,5.78
2023-02-08T16:28:27.833Z,6.15
2023-02-08T16:30:58.493Z,6.22
2023-02-08T16:33:29.138Z,5.57
2023-02-08T16:36:02.105Z,5.30
2023-02-08T16:38:35.143Z,5.95
2023-02-08T16:41:29.156Z,5.50
2023-02-08T16:44:21.384Z,6.18
2023-02-08T16:46:50.232Z,6.43
2023-02-08T16:49:23.497Z,6.28
2023-02-08T16:51:58.018Z,5.45
2023-02-08T16:54:28.564Z,5.50
2023-02-08T16:57:01.389Z,4.40
2023-02-08T16:59:32.823Z,5.43
2023-02-08T17:02:04.050Z,5.78
2023-02-08T17:04:35.117Z,5.03
2023-02-08T17:07:07.424Z,5.78
2023-02-08T17:09:39.275Z,5.50
2023-02-08T17:12:22.492Z,4.63
2023-02-08T17:15:00.957Z,6.60
2023-02-08T17:17:32.260Z,5.32
2023-02-08T17:20:25.803Z,5.57
2023-02-08T17:22:57.265Z,5.88
2023-02-08T17:25:43.618Z,5.50
2023-02-08T17:28:21.637Z,4.63
2023-02-08T17:30:50.801Z,3.90
2023-02-08T17:33:19.500Z,4.50
2023-02-08T17:35:49.545Z,3.33
2023-02-08T17:38:20.737Z,4.57
2023-02-08T17:40:54.072Z,5.10
2023-02-08T17:43:24.241Z,3.35
2023-02-08T17:45:52.937Z,3.10
2023-02-08T17:50:51.238Z,2.70
2023-02-08T17:53:23.808Z,3.85
2023-02-08T17:55:54.019Z,3.47
2023-02-08T17:58:22.594Z,4.43
2023-02-08T18:00:51.060Z,3.95
2023-02-08T18:05:51.167Z,3.60
2023-02-08T18:08:19.796Z,3.97
2023-02-08T18:15:48.225Z,4.03
2023-02-08T18:18:18.406Z,3.85
2023-02-08T18:21:04.780Z,4.15
2023-02-08T18:23:33.937Z,3.50
2023-02-08T18:26:25.353Z,4.47
2023-02-08T18:28:55.546Z,3.40
2023-02-08T18:31:25.635Z,3.85
2023-02-08T18:33:54.412Z,4.82
2023-02-08T18:36:23.867Z,4.85
2023-02-08T18:38:55.877Z,4.35
2023-02-08T18:41:26.935Z,4.85
2023-02-08T18:43:58.972Z,4.28
2023-02-08T18:46:30.619Z,2.47
2023-02-08T18:48:59.411Z,4.78
2023-02-08T18:51:30.167Z,5.15
2023-02-08T18:54:18.450Z,3.60
2023-02-08T18:57:06.379Z,4.20
2023-02-08T18:59:56.304Z,4.53
2023-02-08T19:02:26.512Z,3.22
2023-02-08T19:04:55.138Z,4.85
2023-02-08T19:07:23.974Z,3.17
2023-02-08T19:10:09.994Z,4.07
2023-02-08T19:12:38.906Z,4.18
2023-02-08T19:15:10.271Z,3.40
2023-02-08T19:17:39.425Z,4.60
2023-02-08T19:20:09.213Z,3.85
2023-02-08T19:22:37.890Z,3.92
2023-02-08T19:25:07.405Z,4.55
2023-02-08T19:27:37.173Z,5.43
2023-02-08T19:30:14.335Z,3.67
2023-02-08T19:32:44.546Z,4.95
2023-02-08T19:35:13.400Z,4.55
2023-02-08T19:37:43.075Z,4.50
2023-02-08T19:40:13.390Z,4.25
2023-02-08T19:42:43.869Z,5.68
2023-02-08T19:45:13.084Z,5.57
2023-02-08T19:47:51.568Z,6.60
2023-02-08T19:50:20.701Z,5.20
2023-02-08T19:52:49.302Z,6.25
2023-02-08T19:55:17.932Z,6.60
2023-02-08T19:57:46.509Z,6.38
2023-02-08T20:00:23.416Z,7.32
2023-02-08T20:02:54.261Z,4.97
2023-02-08T20:05:22.986Z,4.90
2023-02-08T20:07:51.637Z,6.80
2023-02-08T20:10:20.303Z,6.40
2023-02-08T20:12:48.762Z,6.05
2023-02-08T20:17:45.886Z,6.57
2023-02-08T20:20:17.886Z,6.20
2023-02-08T20:22:46.449Z,6.18
2023-02-08T20:27:45.690Z,5.97
2023-02-08T20:30:17.254Z,6.15
2023-02-08T20:32:47.180Z,6.55
2023-02-08T20:35:18.339Z,6.50
2023-02-08T20:37:47.376Z,7.45
2023-02-08T20:40:17.557Z,7.72
2023-02-08T20:42:46.200Z,7.45
2023-02-08T20:45:15.448Z,6.53
2023-02-08T20:47:46.781Z,6.85
2023-02-08T20:50:19.546Z,7.88
2023-02-08T20:52:49.317Z,8.25
2023-02-08T20:55:17.938Z,6.88
2023-02-08T20:57:46.563Z,6.80
2023-02-08T21:02:49.041Z,7.60
2023-02-08T21:05:23.510Z,6.30
2023-02-08T21:07:52.271Z,7.00
2023-02-08T21:15:18.280Z,6.55
2023-02-08T21:17:47.085Z,7.00
2023-02-08T21:20:16.146Z,7.50
2023-02-08T21:22:46.343Z,6.43
2023-02-08T21:25:15.021Z,6.50
2023-02-08T21:30:14.459Z,5.95
2023-02-08T21:32:44.284Z,6.20
2023-02-08T21:35:15.892Z,6.28
2023-02-08T21:37:46.054Z,6.82
2023-02-08T21:40:14.845Z,5.78
2023-02-08T21:42:43.496Z,6.65
2023-02-08T21:45:15.361Z,6.18
2023-02-08T21:47:44.008Z,6.00
2023-02-08T21:50:30.104Z,5.63
2023-02-08T21:53:20.347Z,6.10
2023-02-08T21:55:49.454Z,7.70
2023-02-08T21:58:17.981Z,6.07
2023-02-08T22:03:15.301Z,6.13
2023-02-08T22:06:01.645Z,6.25
2023-02-08T22:08:31.716Z,5.75
2023-02-08T22:11:04.816Z,6.28
2023-02-08T22:13:34.287Z,6.75
2023-02-08T22:16:03.293Z,5.78
2023-02-08T22:18:31.779Z,5.80
2023-02-08T22:21:00.354Z,7.18
2023-02-08T22:25:58.451Z,6.13
2023-02-08T22:28:27.096Z,5.50
2023-02-08T22:33:26.370Z,4.80
2023-02-08T22:35:55.425Z,5.60
2023-02-08T22:38:24.215Z,5.68
2023-02-08T22:40:52.834Z,5.50
2023-02-08T22:45:58.376Z,6.38
2023-02-08T22:48:27.340Z,6.97
2023-02-08T22:50:55.769Z,4.40
2023-02-08T22:55:54.098Z,4.82
2023-02-08T22:58:24.795Z,6.18
2023-02-08T23:00:55.780Z,6.10
2023-02-08T23:03:24.798Z,6.15
2023-02-08T23:05:54.560Z,5.53
2023-02-08T23:08:25.552Z,6.07
2023-02-08T23:10:59.974Z,6.18
2023-02-08T23:13:30.561Z,5.57
2023-02-08T23:15:59.295Z,5.00
2023-02-08T23:18:28.144Z,5.45
2023-02-08T23:20:56.695Z,6.82
2023-02-08T23:23:25.126Z,6.43
2023-02-08T23:25:53.686Z,7.18
2023-02-08T23:28:22.171Z,6.70
2023-02-08T23:33:20.405Z,6.80
2023-02-08T23:35:48.815Z,5.43
2023-02-08T23:38:19.629Z,6.00
2023-02-08T23:40:48.129Z,6.05
2023-02-08T23:43:16.565Z,6.95
2023-02-08T23:45:45.000Z,6.55
2023-02-08T23:48:14.895Z,7.80
2023-02-08T23:50:43.651Z,8.15
2023-02-08T23:53:12.235Z,6.82
2023-02-08T23:55:40.649Z,6.97
2023-02-08T23:58:09.038Z,7.13
